createdAt,value
2023-09-02T00:00:42.746Z,32.58
2023-09-02T00:03:30.388Z,30.55
2023-09-02T00:06:18.152Z,36.15
2023-09-02T00:09:06.185Z,31.90
2023-09-02T00:11:53.786Z,36.30
2023-09-02T00:14:41.429Z,36.75
2023-09-02T00:17:32.901Z,32.75
2023-09-02T00:20:22.106Z,38.90
2023-09-02T00:23:09.708Z,38.10
2023-09-02T00:25:57.363Z,38.58
2023-09-02T00:28:44.899Z,43.05
2023-09-02T00:31:34.942Z,39.38
2023-09-02T00:34:23.735Z,37.88
2023-09-02T00:37:11.324Z,31.30
2023-09-02T00:39:59.121Z,31.85
2023-09-02T00:42:48.957Z,34.63
2023-09-02T00:45:36.796Z,31.90
2023-09-02T00:48:24.972Z,31.50
2023-09-02T00:51:12.757Z,33.15
2023-09-02T00:54:00.403Z,31.98
2023-09-02T00:56:49.494Z,32.47
2023-09-02T00:59:37.245Z,41.60
2023-09-02T01:02:25.500Z,32.88
2023-09-02T01:05:14.920Z,39.70
2023-09-02T01:08:06.344Z,32.40
2023-09-02T01:10:54.709Z,32.28
2023-09-02T01:13:42.275Z,34.25
2023-09-02T01:16:30.972Z,34.67
2023-09-02T01:19:21.426Z,35.88
2023-09-02T01:22:26.707Z,30.40
2023-09-02T01:26:12.296Z,35.22
2023-09-02T01:29:08.787Z,26.13
2023-09-02T01:31:57.248Z,32.47
2023-09-02T01:34:47.078Z,38.05
2023-09-02T01:37:44.834Z,31.05
2023-09-02T01:40:34.318Z,31.67
2023-09-02T01:43:25.137Z,35.80
2023-09-02T01:46:13.919Z,29.67
2023-09-02T01:49:03.872Z,26.75
2023-09-02T01:51:52.639Z,32.47
2023-09-02T01:54:40.682Z,34.20
2023-09-02T01:57:28.598Z,37.10
2023-09-02T02:00:16.900Z,34.05
2023-09-02T02:03:16.469Z,33.60
2023-09-02T02:06:15.610Z,33.13
2023-09-02T02:09:31.395Z,38.88
2023-09-02T02:12:23.456Z,33.10
2023-09-02T02:15:13.140Z,38.28
2023-09-02T02:18:01.078Z,32.75
2023-09-02T02:21:06.299Z,38.63
2023-09-02T02:23:54.083Z,35.28
2023-09-02T02:26:42.072Z,35.35
2023-09-02T02:29:30.141Z,30.80
2023-09-02T02:32:17.846Z,30.52
2023-09-02T02:35:06.901Z,40.40
2023-09-02T02:37:55.972Z,52.25
2023-09-02T02:40:43.828Z,46.22
2023-09-02T02:43:31.983Z,47.03
2023-09-02T02:46:19.607Z,38.40
2023-09-02T02:49:07.199Z,37.50
2023-09-02T02:51:57.310Z,36.75
2023-09-02T02:54:47.224Z,39.55
2023-09-02T02:57:34.945Z,41.05
2023-09-02T03:00:23.641Z,33.67
2023-09-02T03:03:13.711Z,37.42
2023-09-02T03:06:06.488Z,33.65
2023-09-02T03:08:54.346Z,34.67
2023-09-02T03:11:43.367Z,38.08
2023-09-02T03:14:31.641Z,37.50
2023-09-02T03:17:22.028Z,36.03
2023-09-02T03:20:12.083Z,33.17
2023-09-02T03:23:00.161Z,31.05
2023-09-02T03:25:47.958Z,34.28
2023-09-02T03:28:35.984Z,34.10
2023-09-02T03:31:24.834Z,38.97
2023-09-02T03:34:14.580Z,35.65
2023-09-02T03:37:02.277Z,42.13
2023-09-02T03:39:49.898Z,38.92
2023-09-02T03:42:37.801Z,34.63
2023-09-02T03:45:25.474Z,32.13
2023-09-02T03:48:13.540Z,33.05
2023-09-02T03:51:13.740Z,27.75
2023-09-02T03:54:05.563Z,35.72
2023-09-02T03:56:54.275Z,32.50
2023-09-02T03:59:41.896Z,36.60
2023-09-02T04:02:29.833Z,34.72
2023-09-02T04:05:17.502Z,34.33
2023-09-02T04:08:06.264Z,27.45
2023-09-02T04:10:56.621Z,32.35
2023-09-02T04:13:44.496Z,39.15
2023-09-02T04:16:35.058Z,37.15
2023-09-02T04:19:23.774Z,43.97
2023-09-02T04:22:12.206Z,44.30
2023-09-02T04:25:00.041Z,35.97
2023-09-02T04:27:48.086Z,36.58
2023-09-02T04:30:35.708Z,40.60
2023-09-02T04:33:25.396Z,33.47
2023-09-02T04:36:14.625Z,30.55
2023-09-02T04:39:05.976Z,39.45
2023-09-02T04:41:53.852Z,30.48
2023-09-02T04:44:41.421Z,33.13
2023-09-02T04:47:29.050Z,36.45
2023-09-02T04:50:17.230Z,42.08
2023-09-02T04:53:05.546Z,36.85
2023-09-02T04:55:56.774Z,30.67
2023-09-02T04:58:45.201Z,30.10
2023-09-02T05:01:36.221Z,26.52
2023-09-02T05:04:23.927Z,27.83
2023-09-02T05:07:11.572Z,35.25
2023-09-02T05:09:59.239Z,38.58
2023-09-02T05:12:47.435Z,32.83
2023-09-02T05:15:37.310Z,35.03
2023-09-02T05:18:25.078Z,40.25
2023-09-02T05:21:12.824Z,29.40
2023-09-02T05:24:00.579Z,31.50
2023-09-02T05:26:50.074Z,33.15
2023-09-02T05:29:37.979Z,32.25
2023-09-02T05:32:25.719Z,33.13
2023-09-02T05:35:13.428Z,32.55
2023-09-02T05:38:01.076Z,41.10
2023-09-02T05:40:48.664Z,31.30
2023-09-02T05:43:36.318Z,33.97
2023-09-02T05:46:24.003Z,28.02
2023-09-02T05:49:13.532Z,35.65
2023-09-02T05:52:01.124Z,34.22
2023-09-02T05:54:49.405Z,30.55
2023-09-02T05:57:36.968Z,27.67
2023-09-02T06:00:24.571Z,28.67
2023-09-02T06:03:12.269Z,32.78
2023-09-02T06:05:59.969Z,34.15
2023-09-02T06:08:47.661Z,29.60
2023-09-02T06:11:35.267Z,32.97
2023-09-02T06:14:23.031Z,33.72
2023-09-02T06:17:10.790Z,27.00
2023-09-02T06:20:00.546Z,37.85
2023-09-02T06:22:48.534Z,32.88
2023-09-02T06:25:36.214Z,28.77
2023-09-02T06:28:25.454Z,35.25
2023-09-02T06:31:13.623Z,35.83
2023-09-02T06:34:01.248Z,34.47
2023-09-02T06:36:48.857Z,25.38
2023-09-02T06:39:36.406Z,29.45
2023-09-02T06:42:24.791Z,34.90
2023-09-02T06:45:12.817Z,36.20
2023-09-02T06:48:01.918Z,31.25
2023-09-02T06:50:49.572Z,35.25
2023-09-02T06:53:40.117Z,37.30
2023-09-02T06:56:27.727Z,32.50
2023-09-02T06:59:15.373Z,29.67
2023-09-02T07:02:03.916Z,37.13
2023-09-02T07:04:51.564Z,42.92
2023-09-02T07:07:39.493Z,38.00
2023-09-02T07:10:27.123Z,35.67
2023-09-02T07:13:14.794Z,33.67
2023-09-02T07:16:08.298Z,31.85
2023-09-02T07:18:56.423Z,35.05
2023-09-02T07:21:44.092Z,37.35
2023-09-02T07:24:31.843Z,29.42
2023-09-02T07:27:19.483Z,29.10
2023-09-02T07:30:08.245Z,27.75
2023-09-02T07:32:55.908Z,38.15
2023-09-02T07:35:43.698Z,31.00
2023-09-02T07:38:31.302Z,37.25
2023-09-02T07:41:18.983Z,35.88
2023-09-02T07:44:06.631Z,37.88
2023-09-02T07:46:55.302Z,34.13
2023-09-02T07:49:43.072Z,35.63
2023-09-02T07:52:31.071Z,34.60
2023-09-02T07:55:19.262Z,33.75
2023-09-02T07:58:07.647Z,40.15
2023-09-02T08:00:58.608Z,38.42
2023-09-02T08:03:46.324Z,31.80
2023-09-02T08:06:34.545Z,37.92
2023-09-02T08:09:22.296Z,35.78
2023-09-02T08:12:10.597Z,35.40
2023-09-02T08:14:58.333Z,42.20
2023-09-02T08:17:46.595Z,33.33
2023-09-02T08:20:36.773Z,33.17
2023-09-02T08:23:24.633Z,37.97
2023-09-02T08:26:14.373Z,38.03
2023-09-02T08:29:02.155Z,38.30
2023-09-02T08:31:58.848Z,38.03
2023-09-02T08:34:46.580Z,34.80
2023-09-02T08:37:35.982Z,36.90
2023-09-02T08:40:23.642Z,36.17
2023-09-02T08:43:13.042Z,33.13
2023-09-02T08:46:05.713Z,32.88
2023-09-02T08:48:58.046Z,30.05
2023-09-02T08:51:47.942Z,33.38
2023-09-02T08:54:39.512Z,37.05
2023-09-02T08:57:28.064Z,34.63
2023-09-02T09:00:15.905Z,28.17
2023-09-02T09:03:04.699Z,35.58
2023-09-02T09:05:54.321Z,34.97
2023-09-02T09:08:43.924Z,31.08
2023-09-02T09:11:37.307Z,34.22
2023-09-02T09:14:28.071Z,28.77
2023-09-02T09:17:17.328Z,32.92
2023-09-02T09:20:06.428Z,34.28
2023-09-02T09:22:54.212Z,32.67
2023-09-02T09:25:43.597Z,37.28
2023-09-02T09:28:57.955Z,38.53
2023-09-02T09:31:46.129Z,35.63
2023-09-02T09:34:47.929Z,36.85
2023-09-02T09:37:57.493Z,33.10
2023-09-02T09:40:45.154Z,35.95
2023-09-02T09:43:33.177Z,38.42
2023-09-02T09:46:21.571Z,34.95
2023-09-02T09:49:11.291Z,42.28
2023-09-02T09:52:01.705Z,44.45
2023-09-02T09:54:53.860Z,41.63
2023-09-02T09:57:41.592Z,36.65
2023-09-02T10:00:31.330Z,35.38
2023-09-02T10:03:29.983Z,43.20
2023-09-02T10:06:18.576Z,38.30
2023-09-02T10:09:06.342Z,40.58
2023-09-02T10:12:10.314Z,37.20
2023-09-02T10:15:01.969Z,33.50
2023-09-02T10:17:49.970Z,39.03
2023-09-02T10:20:39.671Z,40.17
2023-09-02T10:23:28.942Z,35.15
2023-09-02T10:26:38.437Z,36.05
2023-09-02T10:29:37.973Z,34.50
2023-09-02T10:32:42.164Z,33.22
2023-09-02T10:35:33.042Z,22.35
2023-09-02T10:38:23.437Z,39.03
2023-09-02T10:41:34.139Z,30.70
2023-09-02T10:44:25.814Z,30.67
2023-09-02T10:47:13.450Z,36.95
2023-09-02T10:50:04.132Z,37.65
2023-09-02T10:53:08.438Z,36.42
2023-09-02T10:58:50.215Z,35.35
2023-09-02T11:01:49.989Z,32.85
2023-09-02T11:04:49.169Z,32.75
2023-09-02T11:07:40.592Z,31.77
2023-09-02T11:10:56.336Z,29.25
2023-09-02T11:14:09.129Z,32.47
2023-09-02T11:17:31.298Z,28.27
2023-09-02T11:20:26.826Z,29.27
2023-09-02T11:23:23.142Z,33.13
2023-09-02T11:26:14.805Z,31.55
2023-09-02T11:29:30.262Z,33.88
2023-09-02T11:32:17.852Z,30.80
2023-09-02T11:35:08.912Z,29.10
2023-09-02T11:37:57.567Z,35.08
2023-09-02T11:40:45.778Z,31.48
2023-09-02T11:43:35.128Z,31.65
2023-09-02T11:46:29.452Z,27.85
2023-09-02T11:49:26.181Z,36.60
2023-09-02T11:52:14.566Z,31.23
2023-09-02T11:55:16.838Z,26.50
2023-09-02T11:58:11.720Z,30.05
2023-09-02T12:00:59.426Z,29.75
2023-09-02T12:03:48.745Z,30.02
2023-09-02T12:06:36.526Z,28.63
2023-09-02T12:09:26.210Z,30.60
2023-09-02T12:12:16.284Z,33.78
2023-09-02T12:15:04.483Z,27.98
2023-09-02T12:17:52.669Z,27.58
2023-09-02T12:20:41.398Z,24.83
2023-09-02T12:23:29.181Z,27.27
2023-09-02T12:26:16.883Z,28.48
2023-09-02T12:29:25.521Z,29.60
2023-09-02T12:32:13.172Z,27.25
2023-09-02T12:35:01.264Z,25.30
2023-09-02T12:38:12.444Z,29.60
2023-09-02T12:41:00.278Z,28.65
2023-09-02T12:43:48.518Z,25.35
2023-09-02T12:46:36.406Z,30.35
2023-09-02T12:49:24.084Z,31.13
2023-09-02T12:52:22.301Z,28.05
2023-09-02T12:55:10.170Z,31.10
2023-09-02T12:57:58.421Z,29.75
2023-09-02T13:00:46.553Z,26.42
2023-09-02T13:03:34.825Z,29.73
2023-09-02T13:06:25.078Z,31.05
2023-09-02T13:09:12.806Z,30.95
2023-09-02T13:12:03.931Z,25.92
2023-09-02T13:14:59.274Z,23.92
2023-09-02T13:17:49.223Z,28.20
2023-09-02T13:20:39.920Z,28.10
2023-09-02T13:23:31.957Z,28.08
2023-09-02T13:26:22.518Z,30.00
2023-09-02T13:29:10.101Z,31.23
2023-09-02T13:32:11.737Z,31.95
2023-09-02T13:35:24.895Z,27.83
2023-09-02T13:38:20.978Z,29.05
2023-09-02T13:41:11.750Z,29.98
2023-09-02T13:43:59.723Z,26.27
2023-09-02T13:46:56.032Z,28.52
2023-09-02T13:49:55.583Z,30.98
2023-09-02T13:52:48.862Z,26.15
2023-09-02T13:55:48.810Z,30.15
2023-09-02T13:58:37.583Z,27.05
2023-09-02T14:01:25.643Z,27.65
2023-09-02T14:04:13.655Z,31.20
2023-09-02T14:07:01.830Z,24.83
2023-09-02T14:09:49.478Z,22.77
2023-09-02T14:12:37.194Z,22.70
2023-09-02T14:15:24.922Z,25.77
2023-09-02T14:18:12.701Z,24.70
2023-09-02T14:21:00.707Z,24.67
2023-09-02T14:23:48.354Z,24.63
2023-09-02T14:27:16.399Z,21.27
2023-09-02T14:30:17.393Z,23.40
2023-09-02T14:33:07.985Z,22.52
2023-09-02T14:35:56.885Z,18.38
2023-09-02T14:38:45.080Z,20.45
2023-09-02T14:41:32.640Z,21.52
2023-09-02T14:44:20.424Z,20.92
2023-09-02T14:47:09.014Z,20.25
2023-09-02T14:49:57.036Z,20.45
2023-09-02T14:52:45.605Z,19.60
2023-09-02T14:55:34.568Z,18.60
2023-09-02T14:58:22.405Z,19.48
2023-09-02T15:01:16.196Z,15.30
2023-09-02T15:04:05.301Z,17.35
2023-09-02T15:06:53.184Z,15.63
2023-09-02T15:09:41.104Z,17.02
2023-09-02T15:12:30.831Z,15.38
2023-09-02T15:15:25.053Z,17.15
2023-09-02T15:18:32.632Z,17.90
2023-09-02T15:21:20.596Z,18.77
2023-09-02T15:24:11.263Z,18.02
2023-09-02T15:27:01.822Z,18.73
2023-09-02T15:29:51.484Z,17.35
2023-09-02T15:32:39.192Z,17.98
2023-09-02T15:35:28.845Z,21.05
2023-09-02T15:38:19.970Z,18.92
2023-09-02T15:41:08.332Z,16.77
2023-09-02T15:43:56.097Z,17.33
2023-09-02T15:46:44.522Z,14.45
2023-09-02T15:49:32.380Z,17.45
2023-09-02T15:52:19.987Z,16.95
2023-09-02T15:55:08.629Z,17.55
2023-09-02T15:57:57.500Z,17.05
2023-09-02T16:00:45.266Z,14.68
2023-09-02T16:03:33.046Z,13.68
2023-09-02T16:06:21.835Z,13.45
2023-09-02T16:09:10.388Z,13.55
2023-09-02T16:11:58.336Z,13.13
2023-09-02T16:14:48.439Z,16.10
2023-09-02T16:17:39.476Z,15.45
2023-09-02T16:20:27.199Z,14.98
2023-09-02T16:23:14.935Z,19.08
2023-09-02T16:26:02.785Z,18.40
2023-09-02T16:28:50.436Z,17.02
2023-09-02T16:31:38.134Z,15.80
2023-09-02T16:34:25.753Z,17.15
2023-09-02T16:37:17.551Z,20.48
2023-09-02T16:40:12.968Z,19.90
2023-09-02T16:43:00.749Z,23.42
2023-09-02T16:45:49.790Z,18.60
2023-09-02T16:48:38.192Z,19.98
2023-09-02T16:51:25.873Z,19.02
2023-09-02T16:54:14.478Z,21.42
2023-09-02T16:57:02.261Z,20.40
2023-09-02T16:59:50.078Z,21.20
2023-09-02T17:02:50.018Z,21.15
2023-09-02T17:05:43.122Z,22.67
2023-09-02T17:08:30.971Z,25.48
2023-09-02T17:11:20.261Z,19.52
2023-09-02T17:14:09.412Z,21.08
2023-09-02T17:16:57.548Z,19.75
2023-09-02T17:19:46.064Z,18.08
2023-09-02T17:22:39.636Z,18.80
2023-09-02T17:25:29.730Z,18.08
2023-09-02T17:28:33.751Z,17.38
2023-09-02T17:31:23.682Z,16.73
2023-09-02T17:34:14.388Z,16.42
2023-09-02T17:37:10.658Z,19.02
2023-09-02T17:40:05.254Z,16.70
2023-09-02T17:42:58.199Z,16.10
2023-09-02T17:45:45.829Z,16.63
2023-09-02T17:48:36.020Z,15.98
2023-09-02T17:51:24.156Z,16.63
2023-09-02T17:54:17.969Z,15.50
2023-09-02T17:57:06.267Z,16.63
2023-09-02T17:59:54.220Z,14.98
2023-09-02T18:02:47.621Z,17.02
2023-09-02T18:05:36.672Z,16.13
2023-09-02T18:08:29.248Z,18.80
2023-09-02T18:14:11.235Z,15.25
2023-09-02T18:16:59.483Z,17.73
2023-09-02T18:19:48.643Z,17.13
2023-09-02T18:22:37.372Z,17.35
2023-09-02T18:25:28.608Z,18.15
2023-09-02T18:28:16.512Z,18.23
2023-09-02T18:31:05.952Z,15.82
2023-09-02T18:33:55.598Z,17.85
2023-09-02T18:36:43.768Z,17.42
2023-09-02T18:39:31.973Z,18.95
2023-09-02T18:42:19.758Z,19.10
2023-09-02T18:45:08.196Z,18.95
2023-09-02T18:47:57.455Z,19.23
2023-09-02T18:50:47.832Z,19.45
2023-09-02T18:53:37.692Z,18.48
2023-09-02T18:56:26.989Z,18.55
2023-09-02T18:59:18.831Z,18.92
2023-09-02T19:02:11.117Z,18.38
2023-09-02T19:05:05.578Z,18.15
2023-09-02T19:07:53.309Z,18.63
2023-09-02T19:10:40.994Z,17.70
2023-09-02T19:13:28.670Z,17.33
2023-09-02T19:16:18.199Z,17.63
2023-09-02T19:19:07.855Z,19.58
2023-09-02T19:21:56.116Z,19.70
2023-09-02T19:24:44.714Z,18.15
2023-09-02T19:27:32.463Z,20.10
2023-09-02T19:30:20.562Z,20.80
2023-09-02T19:33:11.100Z,21.13
2023-09-02T19:36:02.936Z,20.35
2023-09-02T19:38:51.729Z,19.70
2023-09-02T19:41:40.665Z,22.45
2023-09-02T19:44:34.218Z,20.80
2023-09-02T19:47:22.674Z,21.60
2023-09-02T19:50:12.118Z,25.20
2023-09-02T19:52:59.850Z,26.25
2023-09-02T19:55:49.139Z,23.77
2023-09-02T19:58:43.808Z,25.17
2023-09-02T20:01:39.438Z,22.95
2023-09-02T20:04:27.736Z,21.17
2023-09-02T20:07:15.589Z,23.42
2023-09-02T20:10:04.876Z,24.60
2023-09-02T20:12:53.768Z,24.42
2023-09-02T20:15:42.188Z,27.13
2023-09-02T20:18:33.940Z,26.00
2023-09-02T20:21:23.128Z,24.00
2023-09-02T20:24:11.751Z,24.17
2023-09-02T20:26:59.928Z,24.40
2023-09-02T20:29:47.767Z,25.48
2023-09-02T20:32:36.713Z,23.63
2023-09-02T20:35:24.752Z,26.15
2023-09-02T20:38:12.551Z,24.70
2023-09-02T20:41:02.176Z,26.23
2023-09-02T20:43:52.362Z,24.60
2023-09-02T20:46:41.409Z,24.67
2023-09-02T20:49:37.848Z,23.23
2023-09-02T20:52:25.967Z,23.92
2023-09-02T20:55:14.183Z,25.55
2023-09-02T20:58:05.217Z,23.65
2023-09-02T21:00:54.377Z,23.90
2023-09-02T21:03:42.173Z,22.77
2023-09-02T21:06:32.426Z,21.88
2023-09-02T21:09:20.175Z,22.98
2023-09-02T21:12:11.150Z,25.80
2023-09-02T21:15:00.355Z,23.08
2023-09-02T21:17:48.386Z,22.13
2023-09-02T21:20:44.282Z,20.27
2023-09-02T21:23:34.766Z,20.00
2023-09-02T21:26:22.737Z,22.67
2023-09-02T21:29:16.892Z,23.98
2023-09-02T21:32:05.824Z,22.77
2023-09-02T21:34:53.424Z,20.70
2023-09-02T21:37:41.563Z,20.67
2023-09-02T21:40:29.914Z,20.50
2023-09-02T21:43:17.591Z,21.05
2023-09-02T21:46:09.591Z,19.83
2023-09-02T21:48:57.737Z,20.67
2023-09-02T21:51:46.388Z,20.13
2023-09-02T21:54:36.443Z,21.45
2023-09-02T21:57:26.488Z,19.58
2023-09-02T22:00:14.617Z,21.08
2023-09-02T22:03:02.285Z,21.02
2023-09-02T22:06:10.608Z,19.52
2023-09-02T22:08:58.432Z,18.25
2023-09-02T22:11:46.908Z,19.75
2023-09-02T22:14:34.763Z,21.13
2023-09-02T22:17:22.769Z,21.33
2023-09-02T22:20:11.060Z,20.33
2023-09-02T22:23:01.118Z,20.25
2023-09-02T22:25:49.764Z,20.98
2023-09-02T22:28:38.180Z,19.40
2023-09-02T22:31:27.440Z,19.88
2023-09-02T22:34:15.108Z,19.63
2023-09-02T22:37:02.906Z,19.45
2023-09-02T22:39:51.789Z,19.13
2023-09-02T22:42:39.442Z,17.38
2023-09-02T22:45:27.062Z,18.83
2023-09-02T22:48:17.240Z,16.75
2023-09-02T22:51:07.438Z,18.10
2023-09-02T22:53:55.284Z,18.85
2023-09-02T22:56:43.839Z,17.52
2023-09-02T22:59:31.924Z,17.00
2023-09-02T23:02:19.708Z,18.67
2023-09-02T23:05:08.283Z,15.65
2023-09-02T23:07:56.605Z,17.13
2023-09-02T23:10:45.104Z,16.98
2023-09-02T23:13:34.061Z,18.27
2023-09-02T23:16:21.723Z,18.23
2023-09-02T23:19:09.460Z,21.42
2023-09-02T23:21:59.675Z,17.33
2023-09-02T23:24:47.252Z,17.63
2023-09-02T23:27:35.353Z,17.92
2023-09-02T23:30:23.119Z,16.52
2023-09-02T23:33:18.443Z,17.05
2023-09-02T23:36:06.553Z,17.30
2023-09-02T23:38:54.215Z,17.33
2023-09-02T23:41:41.897Z,17.42
2023-09-02T23:44:29.513Z,16.48
2023-09-02T23:47:17.369Z,17.10
2023-09-02T23:50:08.348Z,16.38
2023-09-02T23:52:55.954Z,17.13
2023-09-02T23:55:46.446Z,16.98
2023-09-02T23:58:34.052Z,17.98
